sensor_id;sensor_type;location;lat;lon;timestamp;P1;durP1;ratioP1;P2;durP2;ratioP2
64085;SDS011;50333;47.436;21.390;2023-02-26T00:01:42;4.15;;;3.17;;
64085;SDS011;50333;47.436;21.390;2023-02-26T00:04:10;4.05;;;3.60;;
64085;SDS011;50333;47.436;21.390;2023-02-26T00:06:38;5.93;;;3.60;;
64085;SDS011;50333;47.436;21.390;2023-02-26T00:09:21;4.55;;;3.70;;
64085;SDS011;50333;47.436;21.390;2023-02-26T00:11:49;6.05;;;3.58;;
64085;SDS011;50333;47.436;21.390;2023-02-26T00:14:17;4.90;;;3.35;;
64085;SDS011;50333;47.436;21.390;2023-02-26T00:16:46;5.72;;;3.70;;
64085;SDS011;50333;47.436;21.390;2023-02-26T00:19:22;7.12;;;3.45;;
64085;SDS011;50333;47.436;21.390;2023-02-26T00:21:50;4.53;;;3.42;;
64085;SDS011;50333;47.436;21.390;2023-02-26T00:24:18;6.00;;;4.18;;
64085;SDS011;50333;47.436;21.390;2023-02-26T00:26:46;4.68;;;3.25;;
64085;SDS011;50333;47.436;21.390;2023-02-26T00:29:13;4.70;;;3.60;;
64085;SDS011;50333;47.436;21.390;2023-02-26T00:31:42;5.80;;;3.75;;
64085;SDS011;50333;47.436;21.390;2023-02-26T00:34:10;3.58;;;3.10;;
64085;SDS011;50333;47.436;21.390;2023-02-26T00:41:49;4.82;;;3.72;;
64085;SDS011;50333;47.436;21.390;2023-02-26T00:44:17;3.65;;;3.15;;
64085;SDS011;50333;47.436;21.390;2023-02-26T00:47:09;5.22;;;3.72;;
64085;SDS011;50333;47.436;21.390;2023-02-26T00:52:59;6.00;;;3.65;;
64085;SDS011;50333;47.436;21.390;2023-02-26T00:55:41;4.97;;;3.42;;
64085;SDS011;50333;47.436;21.390;2023-02-26T00:58:09;4.70;;;3.47;;
64085;SDS011;50333;47.436;21.390;2023-02-26T01:00:37;4.32;;;3.12;;
64085;SDS011;50333;47.436;21.390;2023-02-26T01:03:05;4.95;;;3.65;;
64085;SDS011;50333;47.436;21.390;2023-02-26T01:05:34;4.62;;;3.80;;
64085;SDS011;50333;47.436;21.390;2023-02-26T01:08:11;6.07;;;3.80;;
64085;SDS011;50333;47.436;21.390;2023-02-26T01:10:45;5.87;;;4.12;;
64085;SDS011;50333;47.436;21.390;2023-02-26T01:13:13;4.70;;;3.67;;
64085;SDS011;50333;47.436;21.390;2023-02-26T01:15:42;5.78;;;3.97;;
64085;SDS011;50333;47.436;21.390;2023-02-26T01:18:20;5.65;;;4.10;;
64085;SDS011;50333;47.436;21.390;2023-02-26T01:21:04;5.53;;;4.15;;
64085;SDS011;50333;47.436;21.390;2023-02-26T01:23:40;7.22;;;3.78;;
64085;SDS011;50333;47.436;21.390;2023-02-26T01:26:17;5.43;;;4.30;;
64085;SDS011;50333;47.436;21.390;2023-02-26T01:28:50;6.37;;;3.80;;
64085;SDS011;50333;47.436;21.390;2023-02-26T01:34:09;4.32;;;3.83;;
64085;SDS011;50333;47.436;21.390;2023-02-26T01:37:03;5.65;;;3.80;;
64085;SDS011;50333;47.436;21.390;2023-02-26T01:39:59;6.32;;;3.90;;
64085;SDS011;50333;47.436;21.390;2023-02-26T01:42:50;4.07;;;3.60;;
64085;SDS011;50333;47.436;21.390;2023-02-26T01:45:31;5.22;;;4.03;;
64085;SDS011;50333;47.436;21.390;2023-02-26T01:48:06;8.30;;;3.80;;
64085;SDS011;50333;47.436;21.390;2023-02-26T01:50:43;5.20;;;3.72;;
64085;SDS011;50333;47.436;21.390;2023-02-26T01:55:43;5.10;;;4.05;;
64085;SDS011;50333;47.436;21.390;2023-02-26T01:58:16;5.32;;;3.83;;
64085;SDS011;50333;47.436;21.390;2023-02-26T02:00:46;4.05;;;3.65;;
64085;SDS011;50333;47.436;21.390;2023-02-26T02:03:14;5.53;;;4.28;;
64085;SDS011;50333;47.436;21.390;2023-02-26T02:05:43;4.95;;;4.12;;
64085;SDS011;50333;47.436;21.390;2023-02-26T02:08:16;6.60;;;3.80;;
64085;SDS011;50333;47.436;21.390;2023-02-26T02:10:46;4.80;;;4.20;;
64085;SDS011;50333;47.436;21.390;2023-02-26T02:29:52;4.47;;;3.87;;
64085;SDS011;50333;47.436;21.390;2023-02-26T02:32:48;7.35;;;4.35;;
64085;SDS011;50333;47.436;21.390;2023-02-26T02:35:21;4.70;;;3.83;;
64085;SDS011;50333;47.436;21.390;2023-02-26T02:40:43;5.80;;;4.22;;
64085;SDS011;50333;47.436;21.390;2023-02-26T02:43:16;6.15;;;4.03;;
64085;SDS011;50333;47.436;21.390;2023-02-26T02:45:49;6.82;;;4.10;;
64085;SDS011;50333;47.436;21.390;2023-02-26T02:48:23;5.25;;;3.72;;
64085;SDS011;50333;47.436;21.390;2023-02-26T02:53:46;5.62;;;3.83;;
64085;SDS011;50333;47.436;21.390;2023-02-26T02:56:23;6.10;;;4.05;;
64085;SDS011;50333;47.436;21.390;2023-02-26T02:59:05;5.82;;;3.97;;
64085;SDS011;50333;47.436;21.390;2023-02-26T03:04:12;5.55;;;3.95;;
64085;SDS011;50333;47.436;21.390;2023-02-26T03:06:43;8.10;;;3.85;;
64085;SDS011;50333;47.436;21.390;2023-02-26T03:09:13;4.28;;;3.60;;
64085;SDS011;50333;47.436;21.390;2023-02-26T03:11:41;4.68;;;3.92;;
64085;SDS011;50333;47.436;21.390;2023-02-26T03:14:09;6.45;;;3.95;;
64085;SDS011;50333;47.436;21.390;2023-02-26T03:25:22;5.18;;;3.87;;
64085;SDS011;50333;47.436;21.390;2023-02-26T03:30:47;5.82;;;4.25;;
64085;SDS011;50333;47.436;21.390;2023-02-26T03:33:57;5.20;;;4.28;;
64085;SDS011;50333;47.436;21.390;2023-02-26T03:36:41;5.62;;;3.85;;
64085;SDS011;50333;47.436;21.390;2023-02-26T03:39:20;5.80;;;4.37;;
64085;SDS011;50333;47.436;21.390;2023-02-26T03:42:06;6.62;;;3.80;;
64085;SDS011;50333;47.436;21.390;2023-02-26T03:44:54;5.70;;;4.35;;
64085;SDS011;50333;47.436;21.390;2023-02-26T03:47:34;4.60;;;3.60;;
64085;SDS011;50333;47.436;21.390;2023-02-26T03:50:05;7.00;;;3.90;;
64085;SDS011;50333;47.436;21.390;2023-02-26T03:52:41;5.28;;;3.83;;
64085;SDS011;50333;47.436;21.390;2023-02-26T03:55:25;4.70;;;3.83;;
64085;SDS011;50333;47.436;21.390;2023-02-26T03:57:58;4.50;;;3.67;;
64085;SDS011;50333;47.436;21.390;2023-02-26T04:00:27;5.05;;;3.92;;
64085;SDS011;50333;47.436;21.390;2023-02-26T04:03:12;3.85;;;3.42;;
64085;SDS011;50333;47.436;21.390;2023-02-26T04:05:46;4.05;;;3.60;;
64085;SDS011;50333;47.436;21.390;2023-02-26T04:08:17;5.22;;;3.62;;
64085;SDS011;50333;47.436;21.390;2023-02-26T04:10:51;6.00;;;3.45;;
64085;SDS011;50333;47.436;21.390;2023-02-26T04:13:24;4.65;;;3.37;;
64085;SDS011;50333;47.436;21.390;2023-02-26T04:15:52;3.75;;;3.33;;
64085;SDS011;50333;47.436;21.390;2023-02-26T04:18:20;3.95;;;3.30;;
64085;SDS011;50333;47.436;21.390;2023-02-26T04:20:48;5.55;;;3.72;;
64085;SDS011;50333;47.436;21.390;2023-02-26T04:23:16;4.12;;;3.25;;
64085;SDS011;50333;47.436;21.390;2023-02-26T04:25:45;5.35;;;3.40;;
64085;SDS011;50333;47.436;21.390;2023-02-26T04:28:14;4.28;;;3.35;;
64085;SDS011;50333;47.436;21.390;2023-02-26T04:30:43;3.85;;;3.37;;
64085;SDS011;50333;47.436;21.390;2023-02-26T04:33:12;4.70;;;3.53;;
64085;SDS011;50333;47.436;21.390;2023-02-26T04:35:41;5.28;;;3.47;;
64085;SDS011;50333;47.436;21.390;2023-02-26T04:38:09;4.68;;;3.40;;
64085;SDS011;50333;47.436;21.390;2023-02-26T04:40:37;5.87;;;3.12;;
64085;SDS011;50333;47.436;21.390;2023-02-26T04:43:05;6.25;;;3.58;;
64085;SDS011;50333;47.436;21.390;2023-02-26T04:45:33;6.78;;;3.42;;
64085;SDS011;50333;47.436;21.390;2023-02-26T04:48:03;4.62;;;3.53;;
64085;SDS011;50333;47.436;21.390;2023-02-26T04:50:31;6.55;;;4.03;;
64085;SDS011;50333;47.436;21.390;2023-02-26T04:52:59;4.60;;;3.50;;
64085;SDS011;50333;47.436;21.390;2023-02-26T04:55:27;5.30;;;3.65;;
64085;SDS011;50333;47.436;21.390;2023-02-26T04:57:56;5.45;;;3.20;;
64085;SDS011;50333;47.436;21.390;2023-02-26T05:00:24;4.32;;;3.10;;
64085;SDS011;50333;47.436;21.390;2023-02-26T05:02:52;4.87;;;3.67;;
64085;SDS011;50333;47.436;21.390;2023-02-26T05:05:20;7.07;;;5.18;;
64085;SDS011;50333;47.436;21.390;2023-02-26T05:07:48;7.80;;;4.78;;
64085;SDS011;50333;47.436;21.390;2023-02-26T05:10:16;5.47;;;3.67;;
64085;SDS011;50333;47.436;21.390;2023-02-26T05:12:44;5.12;;;3.30;;
64085;SDS011;50333;47.436;21.390;2023-02-26T05:15:14;6.40;;;5.00;;
64085;SDS011;50333;47.436;21.390;2023-02-26T05:17:42;7.15;;;5.57;;
64085;SDS011;50333;47.436;21.390;2023-02-26T05:20:11;6.45;;;4.62;;
64085;SDS011;50333;47.436;21.390;2023-02-26T05:22:39;6.03;;;3.87;;
64085;SDS011;50333;47.436;21.390;2023-02-26T05:25:06;6.10;;;3.78;;
64085;SDS011;50333;47.436;21.390;2023-02-26T05:27:35;6.15;;;4.47;;
64085;SDS011;50333;47.436;21.390;2023-02-26T05:30:03;5.28;;;3.90;;
64085;SDS011;50333;47.436;21.390;2023-02-26T05:32:33;6.68;;;4.40;;
64085;SDS011;50333;47.436;21.390;2023-02-26T05:35:00;5.70;;;4.50;;
64085;SDS011;50333;47.436;21.390;2023-02-26T05:37:28;5.82;;;4.70;;
64085;SDS011;50333;47.436;21.390;2023-02-26T05:39:56;4.60;;;3.90;;
64085;SDS011;50333;47.436;21.390;2023-02-26T05:42:24;4.68;;;3.97;;
64085;SDS011;50333;47.436;21.390;2023-02-26T05:44:51;12.30;;;5.75;;
64085;SDS011;50333;47.436;21.390;2023-02-26T05:47:19;10.98;;;5.50;;
64085;SDS011;50333;47.436;21.390;2023-02-26T05:49:48;10.23;;;4.50;;
64085;SDS011;50333;47.436;21.390;2023-02-26T05:52:16;7.60;;;4.57;;
64085;SDS011;50333;47.436;21.390;2023-02-26T05:54:44;6.40;;;4.00;;
64085;SDS011;50333;47.436;21.390;2023-02-26T05:57:11;5.07;;;3.40;;
64085;SDS011;50333;47.436;21.390;2023-02-26T05:59:39;4.43;;;3.30;;
64085;SDS011;50333;47.436;21.390;2023-02-26T06:02:07;4.00;;;3.22;;
64085;SDS011;50333;47.436;21.390;2023-02-26T06:04:35;5.37;;;3.65;;
64085;SDS011;50333;47.436;21.390;2023-02-26T06:07:03;4.07;;;3.22;;
64085;SDS011;50333;47.436;21.390;2023-02-26T06:09:31;5.97;;;3.12;;
64085;SDS011;50333;47.436;21.390;2023-02-26T06:11:59;6.65;;;3.65;;
64085;SDS011;50333;47.436;21.390;2023-02-26T06:14:26;8.02;;;3.72;;
64085;SDS011;50333;47.436;21.390;2023-02-26T06:16:54;4.32;;;3.03;;
64085;SDS011;50333;47.436;21.390;2023-02-26T06:19:22;5.45;;;3.37;;
64085;SDS011;50333;47.436;21.390;2023-02-26T06:21:50;4.18;;;2.97;;
64085;SDS011;50333;47.436;21.390;2023-02-26T06:24:17;3.78;;;3.00;;
64085;SDS011;50333;47.436;21.390;2023-02-26T06:26:45;7.68;;;2.83;;
64085;SDS011;50333;47.436;21.390;2023-02-26T06:29:13;4.43;;;2.90;;
64085;SDS011;50333;47.436;21.390;2023-02-26T06:31:41;4.12;;;3.15;;
64085;SDS011;50333;47.436;21.390;2023-02-26T06:34:09;3.60;;;2.95;;
64085;SDS011;50333;47.436;21.390;2023-02-26T06:36:37;5.82;;;2.90;;
64085;SDS011;50333;47.436;21.390;2023-02-26T06:39:05;5.22;;;3.00;;
64085;SDS011;50333;47.436;21.390;2023-02-26T06:41:33;4.22;;;3.37;;
64085;SDS011;50333;47.436;21.390;2023-02-26T06:44:00;5.37;;;3.45;;
64085;SDS011;50333;47.436;21.390;2023-02-26T06:46:28;5.03;;;3.10;;
64085;SDS011;50333;47.436;21.390;2023-02-26T06:48:57;5.55;;;3.22;;
64085;SDS011;50333;47.436;21.390;2023-02-26T06:51:24;4.45;;;3.50;;
64085;SDS011;50333;47.436;21.390;2023-02-26T06:53:52;4.20;;;3.70;;
64085;SDS011;50333;47.436;21.390;2023-02-26T06:56:20;5.32;;;4.12;;
64085;SDS011;50333;47.436;21.390;2023-02-26T06:58:50;5.70;;;4.28;;
64085;SDS011;50333;47.436;21.390;2023-02-26T07:01:18;6.80;;;3.60;;
64085;SDS011;50333;47.436;21.390;2023-02-26T07:03:46;7.93;;;3.40;;
64085;SDS011;50333;47.436;21.390;2023-02-26T07:06:14;3.70;;;3.30;;
64085;SDS011;50333;47.436;21.390;2023-02-26T07:08:54;8.10;;;3.78;;
64085;SDS011;50333;47.436;21.390;2023-02-26T07:11:22;5.95;;;3.83;;
64085;SDS011;50333;47.436;21.390;2023-02-26T07:13:50;5.40;;;3.55;;
64085;SDS011;50333;47.436;21.390;2023-02-26T07:16:19;5.07;;;3.72;;
64085;SDS011;50333;47.436;21.390;2023-02-26T07:18:47;6.78;;;3.83;;
64085;SDS011;50333;47.436;21.390;2023-02-26T07:21:15;4.68;;;3.70;;
64085;SDS011;50333;47.436;21.390;2023-02-26T07:23:43;7.93;;;3.80;;
64085;SDS011;50333;47.436;21.390;2023-02-26T07:26:11;5.62;;;3.62;;
64085;SDS011;50333;47.436;21.390;2023-02-26T07:28:38;4.28;;;3.30;;
64085;SDS011;50333;47.436;21.390;2023-02-26T07:31:06;6.22;;;3.37;;
64085;SDS011;50333;47.436;21.390;2023-02-26T07:33:34;5.62;;;3.60;;
64085;SDS011;50333;47.436;21.390;2023-02-26T07:36:04;5.37;;;3.22;;
64085;SDS011;50333;47.436;21.390;2023-02-26T07:38:33;3.92;;;3.03;;
64085;SDS011;50333;47.436;21.390;2023-02-26T07:41:01;7.30;;;2.85;;
64085;SDS011;50333;47.436;21.390;2023-02-26T07:43:28;4.30;;;3.15;;
64085;SDS011;50333;47.436;21.390;2023-02-26T07:45:56;5.53;;;3.65;;
64085;SDS011;50333;47.436;21.390;2023-02-26T07:48:24;3.80;;;3.17;;
64085;SDS011;50333;47.436;21.390;2023-02-26T07:50:53;5.47;;;3.30;;
64085;SDS011;50333;47.436;21.390;2023-02-26T07:53:21;5.10;;;2.83;;
64085;SDS011;50333;47.436;21.390;2023-02-26T07:55:49;4.32;;;3.25;;
64085;SDS011;50333;47.436;21.390;2023-02-26T07:58:17;4.62;;;3.50;;
64085;SDS011;50333;47.436;21.390;2023-02-26T08:00:45;4.72;;;3.15;;
64085;SDS011;50333;47.436;21.390;2023-02-26T08:03:13;5.25;;;3.37;;
64085;SDS011;50333;47.436;21.390;2023-02-26T08:05:41;6.82;;;3.45;;
64085;SDS011;50333;47.436;21.390;2023-02-26T08:08:09;4.00;;;2.97;;
64085;SDS011;50333;47.436;21.390;2023-02-26T08:10:37;7.05;;;3.58;;
64085;SDS011;50333;47.436;21.390;2023-02-26T08:13:08;5.00;;;3.50;;
64085;SDS011;50333;47.436;21.390;2023-02-26T08:15:36;7.07;;;3.65;;
64085;SDS011;50333;47.436;21.390;2023-02-26T08:18:04;4.97;;;3.45;;
64085;SDS011;50333;47.436;21.390;2023-02-26T08:20:32;3.45;;;2.95;;
64085;SDS011;50333;47.436;21.390;2023-02-26T08:23:00;4.68;;;3.12;;
64085;SDS011;50333;47.436;21.390;2023-02-26T08:25:28;4.93;;;3.40;;
64085;SDS011;50333;47.436;21.390;2023-02-26T08:27:55;3.65;;;3.00;;
64085;SDS011;50333;47.436;21.390;2023-02-26T08:30:24;3.87;;;3.42;;
64085;SDS011;50333;47.436;21.390;2023-02-26T08:32:52;6.97;;;3.60;;
64085;SDS011;50333;47.436;21.390;2023-02-26T08:35:20;3.67;;;3.30;;
64085;SDS011;50333;47.436;21.390;2023-02-26T08:37:47;4.18;;;3.25;;
64085;SDS011;50333;47.436;21.390;2023-02-26T08:40:16;4.18;;;3.10;;
64085;SDS011;50333;47.436;21.390;2023-02-26T08:42:44;6.60;;;3.80;;
64085;SDS011;50333;47.436;21.390;2023-02-26T08:45:13;5.55;;;4.07;;
64085;SDS011;50333;47.436;21.390;2023-02-26T08:47:41;4.78;;;3.42;;
64085;SDS011;50333;47.436;21.390;2023-02-26T08:52:51;3.50;;;2.80;;
64085;SDS011;50333;47.436;21.390;2023-02-26T08:55:19;2.72;;;2.50;;
64085;SDS011;50333;47.436;21.390;2023-02-26T08:57:47;5.80;;;2.85;;
64085;SDS011;50333;47.436;21.390;2023-02-26T09:00:16;2.90;;;2.67;;
64085;SDS011;50333;47.436;21.390;2023-02-26T09:02:45;4.57;;;3.17;;
64085;SDS011;50333;47.436;21.390;2023-02-26T09:05:13;3.33;;;2.85;;
64085;SDS011;50333;47.436;21.390;2023-02-26T09:07:42;4.50;;;3.03;;
64085;SDS011;50333;47.436;21.390;2023-02-26T09:10:11;4.30;;;3.00;;
64085;SDS011;50333;47.436;21.390;2023-02-26T09:12:40;3.28;;;2.72;;
64085;SDS011;50333;47.436;21.390;2023-02-26T09:15:08;3.85;;;2.90;;
64085;SDS011;50333;47.436;21.390;2023-02-26T09:17:37;4.00;;;3.25;;
64085;SDS011;50333;47.436;21.390;2023-02-26T09:20:05;5.28;;;3.40;;
64085;SDS011;50333;47.436;21.390;2023-02-26T09:22:35;5.03;;;2.72;;
64085;SDS011;50333;47.436;21.390;2023-02-26T09:25:05;3.87;;;2.90;;
64085;SDS011;50333;47.436;21.390;2023-02-26T09:27:33;4.65;;;3.12;;
64085;SDS011;50333;47.436;21.390;2023-02-26T09:30:03;4.05;;;2.97;;
64085;SDS011;50333;47.436;21.390;2023-02-26T09:32:32;3.83;;;2.83;;
64085;SDS011;50333;47.436;21.390;2023-02-26T09:34:59;3.55;;;2.60;;
64085;SDS011;50333;47.436;21.390;2023-02-26T09:37:29;4.55;;;3.35;;
64085;SDS011;50333;47.436;21.390;2023-02-26T09:39:56;6.55;;;3.60;;
64085;SDS011;50333;47.436;21.390;2023-02-26T09:45:11;6.07;;;3.12;;
64085;SDS011;50333;47.436;21.390;2023-02-26T09:47:49;5.12;;;3.70;;
64085;SDS011;50333;47.436;21.390;2023-02-26T09:50:21;7.00;;;3.85;;
64085;SDS011;50333;47.436;21.390;2023-02-26T09:52:56;4.87;;;3.08;;
64085;SDS011;50333;47.436;21.390;2023-02-26T09:57:56;5.35;;;3.47;;
64085;SDS011;50333;47.436;21.390;2023-02-26T10:03:30;5.50;;;3.25;;
64085;SDS011;50333;47.436;21.390;2023-02-26T10:12:21;7.18;;;4.57;;
64085;SDS011;50333;47.436;21.390;2023-02-26T10:20:20;4.57;;;3.67;;
64085;SDS011;50333;47.436;21.390;2023-02-26T10:25:57;6.30;;;4.82;;
64085;SDS011;50333;47.436;21.390;2023-02-26T10:39:29;3.58;;;3.28;;
64085;SDS011;50333;47.436;21.390;2023-02-26T10:42:11;4.35;;;3.47;;
64085;SDS011;50333;47.436;21.390;2023-02-26T10:50:04;6.93;;;3.97;;
64085;SDS011;50333;47.436;21.390;2023-02-26T10:52:37;4.85;;;4.12;;
64085;SDS011;50333;47.436;21.390;2023-02-26T10:55:29;6.45;;;4.03;;
64085;SDS011;50333;47.436;21.390;2023-02-26T10:58:10;4.20;;;3.37;;
64085;SDS011;50333;47.436;21.390;2023-02-26T11:00:41;5.07;;;3.53;;
64085;SDS011;50333;47.436;21.390;2023-02-26T11:03:18;5.03;;;3.20;;
64085;SDS011;50333;47.436;21.390;2023-02-26T11:05:48;3.90;;;3.50;;
64085;SDS011;50333;47.436;21.390;2023-02-26T11:08:22;4.25;;;3.00;;
64085;SDS011;50333;47.436;21.390;2023-02-26T11:10:55;2.80;;;2.50;;
64085;SDS011;50333;47.436;21.390;2023-02-26T11:13:26;3.78;;;3.12;;
64085;SDS011;50333;47.436;21.390;2023-02-26T11:15:57;4.85;;;3.25;;
64085;SDS011;50333;47.436;21.390;2023-02-26T11:18:30;4.65;;;3.37;;
64085;SDS011;50333;47.436;21.390;2023-02-26T11:21:05;3.50;;;2.83;;
64085;SDS011;50333;47.436;21.390;2023-02-26T11:23:35;3.62;;;3.10;;
64085;SDS011;50333;47.436;21.390;2023-02-26T11:26:07;4.37;;;3.15;;
64085;SDS011;50333;47.436;21.390;2023-02-26T11:28:43;4.05;;;2.90;;
64085;SDS011;50333;47.436;21.390;2023-02-26T11:31:15;3.20;;;2.90;;
64085;SDS011;50333;47.436;21.390;2023-02-26T11:34:03;4.15;;;2.97;;
64085;SDS011;50333;47.436;21.390;2023-02-26T11:36:36;3.85;;;3.00;;
64085;SDS011;50333;47.436;21.390;2023-02-26T11:39:17;3.15;;;2.83;;
64085;SDS011;50333;47.436;21.390;2023-02-26T11:41:48;4.15;;;3.08;;
64085;SDS011;50333;47.436;21.390;2023-02-26T11:44:20;4.90;;;2.85;;
64085;SDS011;50333;47.436;21.390;2023-02-26T11:46:56;3.10;;;2.55;;
64085;SDS011;50333;47.436;21.390;2023-02-26T11:49:26;2.55;;;2.35;;
64085;SDS011;50333;47.436;21.390;2023-02-26T11:52:05;3.90;;;2.90;;
64085;SDS011;50333;47.436;21.390;2023-02-26T11:54:48;4.18;;;2.90;;
64085;SDS011;50333;47.436;21.390;2023-02-26T11:57:23;3.17;;;2.83;;
64085;SDS011;50333;47.436;21.390;2023-02-26T11:59:54;5.57;;;4.10;;
64085;SDS011;50333;47.436;21.390;2023-02-26T12:02:25;19.30;;;11.80;;
64085;SDS011;50333;47.436;21.390;2023-02-26T12:04:59;7.35;;;4.95;;
64085;SDS011;50333;47.436;21.390;2023-02-26T12:07:31;6.62;;;5.22;;
64085;SDS011;50333;47.436;21.390;2023-02-26T12:09:59;4.60;;;3.42;;
64085;SDS011;50333;47.436;21.390;2023-02-26T12:12:48;6.43;;;3.70;;
64085;SDS011;50333;47.436;21.390;2023-02-26T12:15:31;6.00;;;2.95;;
64085;SDS011;50333;47.436;21.390;2023-02-26T12:18:13;3.15;;;2.83;;
64085;SDS011;50333;47.436;21.390;2023-02-26T12:21:13;3.30;;;2.72;;
64085;SDS011;50333;47.436;21.390;2023-02-26T12:26:43;5.45;;;2.90;;
64085;SDS011;50333;47.436;21.390;2023-02-26T12:29:52;4.37;;;3.42;;
64085;SDS011;50333;47.436;21.390;2023-02-26T12:46:15;5.07;;;2.90;;
64085;SDS011;50333;47.436;21.390;2023-02-26T12:54:36;3.12;;;2.58;;
64085;SDS011;50333;47.436;21.390;2023-02-26T12:59:57;3.78;;;2.90;;
64085;SDS011;50333;47.436;21.390;2023-02-26T13:11:22;4.32;;;2.40;;
64085;SDS011;50333;47.436;21.390;2023-02-26T13:14:48;3.80;;;2.80;;
64085;SDS011;50333;47.436;21.390;2023-02-26T13:20:12;3.17;;;2.83;;
64085;SDS011;50333;47.436;21.390;2023-02-26T13:28:08;5.68;;;3.08;;
64085;SDS011;50333;47.436;21.390;2023-02-26T13:30:48;11.18;;;9.07;;
64085;SDS011;50333;47.436;21.390;2023-02-26T13:33:20;4.00;;;3.10;;
64085;SDS011;50333;47.436;21.390;2023-02-26T13:35:51;117.45;;;50.28;;
64085;SDS011;50333;47.436;21.390;2023-02-26T13:38:48;82.12;;;44.42;;
64085;SDS011;50333;47.436;21.390;2023-02-26T13:46:31;120.13;;;57.83;;
64085;SDS011;50333;47.436;21.390;2023-02-26T13:51:48;154.25;;;90.28;;
64085;SDS011;50333;47.436;21.390;2023-02-26T13:59:23;26.98;;;22.30;;
64085;SDS011;50333;47.436;21.390;2023-02-26T14:02:00;8.43;;;7.37;;
64085;SDS011;50333;47.436;21.390;2023-02-26T14:04:53;3.22;;;2.80;;
64085;SDS011;50333;47.436;21.390;2023-02-26T14:10:32;27.90;;;22.08;;
64085;SDS011;50333;47.436;21.390;2023-02-26T14:13:16;18.08;;;14.05;;
64085;SDS011;50333;47.436;21.390;2023-02-26T14:15:58;13.65;;;12.23;;
64085;SDS011;50333;47.436;21.390;2023-02-26T14:24:36;8.27;;;7.10;;
64085;SDS011;50333;47.436;21.390;2023-02-26T14:27:07;3.80;;;2.50;;
64085;SDS011;50333;47.436;21.390;2023-02-26T14:32:14;6.22;;;4.55;;
64085;SDS011;50333;47.436;21.390;2023-02-26T14:34:54;10.32;;;5.82;;
64085;SDS011;50333;47.436;21.390;2023-02-26T14:37:36;4.97;;;2.67;;
64085;SDS011;50333;47.436;21.390;2023-02-26T14:40:10;5.75;;;3.67;;
64085;SDS011;50333;47.436;21.390;2023-02-26T14:42:44;9.77;;;3.80;;
64085;SDS011;50333;47.436;21.390;2023-02-26T14:45:20;11.85;;;5.30;;
64085;SDS011;50333;47.436;21.390;2023-02-26T14:47:56;31.27;;;10.95;;
64085;SDS011;50333;47.436;21.390;2023-02-26T14:50:30;14.38;;;8.02;;
64085;SDS011;50333;47.436;21.390;2023-02-26T14:55:55;18.15;;;12.77;;
64085;SDS011;50333;47.436;21.390;2023-02-26T15:15:17;6.78;;;4.28;;
64085;SDS011;50333;47.436;21.390;2023-02-26T15:23:41;11.48;;;7.60;;
64085;SDS011;50333;47.436;21.390;2023-02-26T15:26:18;9.10;;;7.30;;
64085;SDS011;50333;47.436;21.390;2023-02-26T15:28:50;146.93;;;57.40;;
64085;SDS011;50333;47.436;21.390;2023-02-26T15:31:20;83.85;;;39.08;;
64085;SDS011;50333;47.436;21.390;2023-02-26T15:33:57;15.50;;;8.68;;
64085;SDS011;50333;47.436;21.390;2023-02-26T15:36:27;5.85;;;4.30;;
64085;SDS011;50333;47.436;21.390;2023-02-26T15:38:58;8.88;;;5.18;;
64085;SDS011;50333;47.436;21.390;2023-02-26T15:41:28;8.68;;;5.22;;
64085;SDS011;50333;47.436;21.390;2023-02-26T15:44:03;14.05;;;7.40;;
64085;SDS011;50333;47.436;21.390;2023-02-26T15:46:36;12.68;;;7.22;;
64085;SDS011;50333;47.436;21.390;2023-02-26T15:49:07;11.82;;;7.07;;
64085;SDS011;50333;47.436;21.390;2023-02-26T15:51:39;8.68;;;4.22;;
64085;SDS011;50333;47.436;21.390;2023-02-26T15:54:08;10.10;;;5.50;;
64085;SDS011;50333;47.436;21.390;2023-02-26T15:56:44;8.95;;;4.18;;
64085;SDS011;50333;47.436;21.390;2023-02-26T15:59:21;92.32;;;42.28;;
64085;SDS011;50333;47.436;21.390;2023-02-26T16:01:54;57.40;;;35.83;;
64085;SDS011;50333;47.436;21.390;2023-02-26T16:04:22;7.70;;;6.12;;
64085;SDS011;50333;47.436;21.390;2023-02-26T16:06:54;6.20;;;4.82;;
64085;SDS011;50333;47.436;21.390;2023-02-26T16:09:29;6.32;;;4.40;;
64085;SDS011;50333;47.436;21.390;2023-02-26T16:12:05;5.62;;;4.53;;
64085;SDS011;50333;47.436;21.390;2023-02-26T16:15:21;9.65;;;4.93;;
64085;SDS011;50333;47.436;21.390;2023-02-26T16:17:44;9.10;;;4.43;;
64085;SDS011;50333;47.436;21.390;2023-02-26T16:20:19;6.72;;;3.70;;
64085;SDS011;50333;47.436;21.390;2023-02-26T16:22:56;7.85;;;5.22;;
64085;SDS011;50333;47.436;21.390;2023-02-26T16:28:23;7.68;;;4.10;;
64085;SDS011;50333;47.436;21.390;2023-02-26T16:30:58;10.80;;;5.30;;
64085;SDS011;50333;47.436;21.390;2023-02-26T16:33:31;9.20;;;5.28;;
64085;SDS011;50333;47.436;21.390;2023-02-26T16:36:11;24.65;;;9.52;;
64085;SDS011;50333;47.436;21.390;2023-02-26T16:41:48;19.60;;;8.38;;
64085;SDS011;50333;47.436;21.390;2023-02-26T16:46:57;15.80;;;7.72;;
64085;SDS011;50333;47.436;21.390;2023-02-26T16:49:31;12.02;;;5.90;;
64085;SDS011;50333;47.436;21.390;2023-02-26T16:52:02;10.63;;;5.53;;
64085;SDS011;50333;47.436;21.390;2023-02-26T16:57:03;6.80;;;4.63;;
64085;SDS011;50333;47.436;21.390;2023-02-26T16:59:38;36.00;;;20.27;;
64085;SDS011;50333;47.436;21.390;2023-02-26T17:02:15;8.00;;;5.95;;
64085;SDS011;50333;47.436;21.390;2023-02-26T17:04:46;9.43;;;5.50;;
64085;SDS011;50333;47.436;21.390;2023-02-26T17:07:26;43.60;;;28.42;;
64085;SDS011;50333;47.436;21.390;2023-02-26T17:10:08;83.07;;;52.25;;
64085;SDS011;50333;47.436;21.390;2023-02-26T17:12:52;23.90;;;18.67;;
64085;SDS011;50333;47.436;21.390;2023-02-26T17:15:32;7.37;;;5.28;;
64085;SDS011;50333;47.436;21.390;2023-02-26T17:18:03;6.45;;;3.90;;
64085;SDS011;50333;47.436;21.390;2023-02-26T17:20:31;4.95;;;3.50;;
64085;SDS011;50333;47.436;21.390;2023-02-26T17:23:01;7.78;;;4.00;;
64085;SDS011;50333;47.436;21.390;2023-02-26T17:25:33;5.03;;;3.30;;
64085;SDS011;50333;47.436;21.390;2023-02-26T17:28:16;5.47;;;3.90;;
64085;SDS011;50333;47.436;21.390;2023-02-26T17:30:53;4.57;;;2.87;;
64085;SDS011;50333;47.436;21.390;2023-02-26T17:33:21;24.02;;;14.23;;
64085;SDS011;50333;47.436;21.390;2023-02-26T17:35:50;16.80;;;12.75;;
64085;SDS011;50333;47.436;21.390;2023-02-26T17:38:21;5.32;;;4.00;;
64085;SDS011;50333;47.436;21.390;2023-02-26T17:40:50;7.40;;;4.30;;
64085;SDS011;50333;47.436;21.390;2023-02-26T17:43:22;5.57;;;3.97;;
64085;SDS011;50333;47.436;21.390;2023-02-26T17:45:50;5.22;;;4.05;;
64085;SDS011;50333;47.436;21.390;2023-02-26T17:48:19;8.82;;;6.32;;
64085;SDS011;50333;47.436;21.390;2023-02-26T17:50:54;10.18;;;6.37;;
64085;SDS011;50333;47.436;21.390;2023-02-26T17:53:24;8.98;;;6.72;;
64085;SDS011;50333;47.436;21.390;2023-02-26T17:56:00;8.57;;;7.25;;
64085;SDS011;50333;47.436;21.390;2023-02-26T17:58:29;4.72;;;3.97;;
64085;SDS011;50333;47.436;21.390;2023-02-26T18:03:30;6.60;;;3.85;;
64085;SDS011;50333;47.436;21.390;2023-02-26T18:05:58;6.37;;;3.80;;
64085;SDS011;50333;47.436;21.390;2023-02-26T18:08:28;6.53;;;3.67;;
64085;SDS011;50333;47.436;21.390;2023-02-26T18:10:58;4.90;;;3.55;;
64085;SDS011;50333;47.436;21.390;2023-02-26T18:13:27;4.28;;;2.80;;
64085;SDS011;50333;47.436;21.390;2023-02-26T18:15:55;11.65;;;8.38;;
64085;SDS011;50333;47.436;21.390;2023-02-26T18:18:25;27.15;;;18.65;;
64085;SDS011;50333;47.436;21.390;2023-02-26T18:20:54;19.25;;;12.07;;